Time;durP1;ratioP1;P1;durP2;ratioP2;P2;SDS_P1;SDS_P2;PMS_P1;PMS_P2;Temp;Humidity;BMP_temperature;BMP_pressure;BME280_temperature;BME280_humidity;BME280_pressure;Samples;Min_cycle;Max_cycle;Signal;HPM_P1;HPM_P2
2023/07/29 00:01:53;;;;;;;8.02;5.32;;;18.20;99.90;;;;;;6219723;23;20024;-80
2023/07/29 00:04:20;;;;;;;9.10;5.03;;;18.20;99.90;;;;;;6219765;23;20119;-79
2023/07/29 00:06:46;;;;;;;7.90;4.90;;;18.20;99.90;;;;;;6219750;23;20016;-80
2023/07/29 00:09:12;;;;;;;7.57;4.20;;;18.20;99.90;;;;;;6246501;23;20443;-79
2023/07/29 00:11:38;;;;;;;7.32;4.32;;;18.20;99.90;;;;;;6246840;23;20012;-79
2023/07/29 00:14:04;;;;;;;8.50;4.22;;;18.10;99.90;;;;;;6246513;23;20086;-79
2023/07/29 00:16:29;;;;;;;6.50;3.80;;;18.10;99.90;;;;;;6219552;23;20111;-80
2023/07/29 00:18:55;;;;;;;9.05;4.00;;;18.10;99.90;;;;;;6246625;23;20057;-80
2023/07/29 00:21:21;;;;;;;7.53;3.70;;;18.20;99.90;;;;;;6246759;23;20020;-80
2023/07/29 00:23:46;;;;;;;7.30;4.32;;;18.10;99.90;;;;;;6219530;23;20332;-80
2023/07/29 00:26:12;;;;;;;8.90;4.22;;;18.10;99.90;;;;;;6219563;23;20111;-80
2023/07/29 00:28:38;;;;;;;7.53;3.70;;;18.10;99.90;;;;;;6246298;23;20012;-79
2023/07/29 00:31:03;;;;;;;9.32;4.10;;;18.20;99.90;;;;;;6219496;23;20096;-80
2023/07/29 00:33:29;;;;;;;9.98;4.43;;;18.20;99.90;;;;;;6219446;23;20012;-79
2023/07/29 00:35:55;;;;;;;9.02;3.67;;;18.20;99.90;;;;;;6219291;23;20020;-79
2023/07/29 00:38:20;;;;;;;7.53;4.32;;;18.20;99.90;;;;;;6219462;23;20023;-80
2023/07/29 00:40:46;;;;;;;7.18;4.50;;;18.10;99.90;;;;;;6219519;23;20417;-79
2023/07/29 00:43:11;;;;;;;9.63;4.82;;;18.10;99.90;;;;;;6219497;23;20579;-80
2023/07/29 00:45:38;;;;;;;9.23;5.05;;;18.10;99.90;;;;;;6219482;23;20016;-80
2023/07/29 00:48:05;;;;;;;8.20;4.78;;;18.10;99.90;;;;;;6219476;23;20027;-80
2023/07/29 00:50:32;;;;;;;8.30;4.75;;;18.10;99.90;;;;;;6246536;23;20016;-79
2023/07/29 00:52:58;;;;;;;8.88;4.75;;;18.10;99.90;;;;;;6219481;23;20455;-79
2023/07/29 00:55:24;;;;;;;10.23;5.43;;;18.10;99.90;;;;;;6219571;23;20020;-79
2023/07/29 00:57:53;;;;;;;7.43;5.10;;;18.00;99.90;;;;;;6219450;23;20047;-80
2023/07/29 01:00:19;;;;;;;9.95;5.45;;;18.10;99.90;;;;;;6219170;23;20024;-79
2023/07/29 01:02:44;;;;;;;9.85;5.90;;;18.10;99.90;;;;;;6219300;23;20085;-79
2023/07/29 01:05:13;;;;;;;10.68;5.60;;;18.10;99.90;;;;;;6219445;23;20024;-79
2023/07/29 01:07:55;;;;;;;11.30;6.22;;;18.00;99.90;;;;;;6246489;23;20016;-80
2023/07/29 01:10:38;;;;;;;10.52;5.97;;;18.00;99.90;;;;;;6219410;23;20062;-80
2023/07/29 01:13:30;;;;;;;;;;;18.00;99.90;;;;;;6219848;23;20074;-79
2023/07/29 01:16:01;;;;;;;12.10;5.65;;;17.90;99.90;;;;;;6212232;23;19923;-80
2023/07/29 01:18:31;;;;;;;11.95;6.38;;;18.00;99.90;;;;;;6219402;23;20013;-79
2023/07/29 01:21:04;;;;;;;10.13;5.75;;;17.90;99.90;;;;;;6219341;23;20021;-79
2023/07/29 01:23:31;;;;;;;9.80;5.53;;;17.90;99.90;;;;;;6219465;23;20012;-80
2023/07/29 01:25:56;;;;;;;10.45;5.05;;;17.90;99.90;;;;;;6219271;23;20417;-79
2023/07/29 01:28:23;;;;;;;15.40;6.10;;;17.90;99.90;;;;;;6219310;23;20440;-79
2023/07/29 01:30:51;;;;;;;9.52;5.70;;;17.80;99.90;;;;;;6219251;23;20384;-79
2023/07/29 01:33:25;;;;;;;11.52;6.32;;;17.80;99.90;;;;;;6245996;23;20012;-79
2023/07/29 01:35:58;;;;;;;11.43;5.57;;;17.80;99.90;;;;;;6219357;23;20058;-79
2023/07/29 01:38:35;;;;;;;9.98;6.40;;;17.80;99.90;;;;;;6219168;23;20344;-79
2023/07/29 01:41:03;;;;;;;12.02;6.60;;;17.70;99.90;;;;;;6245928;23;20440;-79
2023/07/29 01:43:29;;;;;;;12.18;6.93;;;17.70;99.90;;;;;;6246356;23;20015;-79
2023/07/29 01:45:56;;;;;;;10.15;6.32;;;17.80;99.90;;;;;;6246381;23;20099;-79
2023/07/29 01:48:21;;;;;;;11.52;6.50;;;17.80;99.90;;;;;;6219409;23;20020;-80
2023/07/29 01:50:47;;;;;;;10.95;5.82;;;17.80;99.90;;;;;;6220920;23;20456;-79
2023/07/29 01:53:12;;;;;;;11.00;6.28;;;17.80;99.90;;;;;;6220972;23;20012;-80
2023/07/29 01:55:39;;;;;;;9.55;5.57;;;17.80;99.90;;;;;;6220996;23;20098;-79
2023/07/29 01:58:04;;;;;;;11.25;6.45;;;17.70;99.90;;;;;;6221566;23;20371;-79
2023/07/29 02:00:32;;;;;;;11.13;6.53;;;17.80;99.90;;;;;;6247420;23;20492;-79
2023/07/29 02:02:57;;;;;;;11.93;6.50;;;17.80;99.90;;;;;;6220768;23;20352;-79
2023/07/29 02:05:23;;;;;;;9.77;5.65;;;17.70;99.90;;;;;;6220888;23;20445;-79
2023/07/29 02:07:49;;;;;;;9.82;6.22;;;17.70;99.90;;;;;;6220884;23;20012;-79
2023/07/29 02:10:15;;;;;;;12.07;6.70;;;17.70;99.90;;;;;;6220706;23;20070;-79
2023/07/29 02:12:40;;;;;;;13.25;7.13;;;17.70;99.90;;;;;;6220732;23;20023;-79
2023/07/29 02:15:06;;;;;;;14.07;7.18;;;17.60;99.90;;;;;;6220773;23;20027;-79
2023/07/29 02:17:32;;;;;;;10.43;6.60;;;17.60;99.90;;;;;;6220754;23;20020;-79
2023/07/29 02:19:58;;;;;;;11.80;6.65;;;17.70;99.90;;;;;;6220456;23;20020;-79
2023/07/29 02:22:23;;;;;;;13.70;7.40;;;17.60;99.90;;;;;;6220703;23;20063;-79
2023/07/29 02:24:49;;;;;;;14.35;7.05;;;17.60;99.90;;;;;;6220725;23;20050;-79
2023/07/29 02:27:14;;;;;;;13.85;7.80;;;17.50;99.90;;;;;;6220740;23;20016;-79
2023/07/29 02:29:40;;;;;;;14.32;8.52;;;17.50;99.90;;;;;;6220608;23;20016;-79
2023/07/29 02:32:06;;;;;;;13.68;8.32;;;17.50;99.90;;;;;;6220597;23;20020;-79
2023/07/29 02:34:34;;;;;;;14.65;8.57;;;17.50;99.90;;;;;;6220623;23;20020;-79
2023/07/29 02:37:00;;;;;;;13.90;8.57;;;17.50;99.90;;;;;;6220493;23;20387;-79
2023/07/29 02:39:25;;;;;;;14.30;8.52;;;17.50;99.90;;;;;;6220410;23;20012;-80
2023/07/29 02:41:51;;;;;;;13.05;7.93;;;17.50;99.90;;;;;;6220449;23;20074;-79
2023/07/29 02:44:20;;;;;;;15.73;9.45;;;17.50;99.90;;;;;;6247631;23;20079;-79
2023/07/29 02:46:48;;;;;;;14.27;8.63;;;17.50;99.90;;;;;;6218821;23;20094;-79
2023/07/29 02:49:14;;;;;;;13.38;7.88;;;17.50;99.90;;;;;;6220346;23;20102;-79
2023/07/29 02:51:39;;;;;;;13.10;7.97;;;17.50;99.90;;;;;;6220349;23;20016;-79
2023/07/29 02:54:05;;;;;;;14.60;8.27;;;17.50;99.90;;;;;;6220486;23;20076;-79
2023/07/29 02:56:30;;;;;;;11.43;7.30;;;17.50;99.90;;;;;;6220394;23;20387;-79
2023/07/29 02:58:56;;;;;;;11.68;7.32;;;17.50;99.90;;;;;;6220135;23;20020;-79
2023/07/29 03:01:27;;;;;;;11.35;7.38;;;17.50;99.90;;;;;;6220080;23;20058;-80
2023/07/29 03:03:53;;;;;;;14.48;7.57;;;17.60;99.90;;;;;;6220313;23;20027;-80
2023/07/29 03:06:19;;;;;;;12.10;7.18;;;17.50;99.90;;;;;;6220662;23;20016;-79
2023/07/29 03:08:44;;;;;;;11.98;6.93;;;17.50;99.90;;;;;;6220292;23;20091;-80
2023/07/29 03:11:12;;;;;;;11.43;6.78;;;17.50;99.90;;;;;;6220276;23;20074;-79
2023/07/29 03:13:38;;;;;;;12.13;6.55;;;17.50;99.90;;;;;;6220090;23;20440;-80
2023/07/29 03:16:15;;;;;;;10.73;7.00;;;17.50;99.90;;;;;;6220180;23;20066;-80
2023/07/29 03:18:42;;;;;;;15.50;7.53;;;17.50;99.90;;;;;;6220278;23;20019;-80
2023/07/29 03:21:09;;;;;;;13.52;8.18;;;17.40;99.90;;;;;;6220021;23;20460;-79
2023/07/29 03:23:35;;;;;;;16.08;9.13;;;17.50;99.90;;;;;;6220060;23;20016;-80
2023/07/29 03:26:04;;;;;;;15.63;9.38;;;17.50;99.90;;;;;;6220104;23;20031;-79
2023/07/29 03:28:32;;;;;;;15.63;9.35;;;17.50;99.90;;;;;;6220112;23;20091;-79
2023/07/29 03:30:58;;;;;;;15.65;9.07;;;17.40;99.90;;;;;;6219998;23;20074;-79
2023/07/29 03:33:25;;;;;;;15.50;8.98;;;17.40;99.90;;;;;;6220063;23;20016;-79
2023/07/29 03:35:51;;;;;;;16.60;9.35;;;17.40;99.90;;;;;;6219897;23;20024;-79
2023/07/29 03:38:17;;;;;;;15.65;9.30;;;17.30;99.90;;;;;;6219911;23;20119;-79
2023/07/29 03:40:43;;;;;;;12.68;9.38;;;17.30;99.90;;;;;;6219801;23;20024;-79
2023/07/29 03:43:09;;;;;;;14.80;8.85;;;17.40;99.90;;;;;;6219801;23;20015;-80
2023/07/29 03:45:35;;;;;;;15.18;9.35;;;17.30;99.90;;;;;;6219753;23;20020;-79
2023/07/29 03:48:02;;;;;;;13.10;8.93;;;17.30;99.90;;;;;;6219756;23;20020;-78
2023/07/29 03:50:29;;;;;;;12.57;7.80;;;17.30;99.90;;;;;;6219452;23;20023;-79
2023/07/29 03:52:55;;;;;;;12.52;8.45;;;17.30;99.90;;;;;;6218314;23;20016;-79
2023/07/29 03:55:20;;;;;;;11.60;7.53;;;17.20;99.90;;;;;;6219531;23;20024;-80
2023/07/29 03:57:49;;;;;;;13.68;7.72;;;17.20;99.90;;;;;;6246524;23;20012;-80
2023/07/29 04:00:15;;;;;;;13.13;7.50;;;17.20;99.90;;;;;;6219170;23;20023;-80
2023/07/29 04:02:49;;;;;;;12.45;6.35;;;17.20;99.90;;;;;;6219290;23;20020;-79
2023/07/29 04:05:15;;;;;;;9.30;5.80;;;17.10;99.90;;;;;;6219454;23;20317;-79
2023/07/29 04:07:44;;;;;;;12.85;6.00;;;17.10;99.90;;;;;;6219334;23;20286;-80
2023/07/29 04:10:12;;;;;;;11.43;6.05;;;17.10;99.90;;;;;;6246587;23;20087;-80
2023/07/29 04:12:38;;;;;;;10.20;5.47;;;17.10;99.90;;;;;;6219190;23;20036;-80
2023/07/29 04:15:04;;;;;;;12.48;5.05;;;17.00;99.90;;;;;;6219450;23;20016;-80
2023/07/29 04:17:38;;;;;;;10.63;5.38;;;17.10;99.90;;;;;;6219606;23;20020;-80
2023/07/29 04:20:05;;;;;;;7.95;4.03;;;17.10;99.90;;;;;;6219534;23;20099;-80
2023/07/29 04:22:30;;;;;;;8.98;4.53;;;17.10;99.90;;;;;;6219413;23;20023;-79
2023/07/29 04:25:12;;;;;;;7.95;4.15;;;17.00;99.90;;;;;;6246563;23;20016;-80
2023/07/29 04:27:38;;;;;;;8.77;4.45;;;17.10;99.90;;;;;;6219385;23;20484;-79
2023/07/29 04:30:07;;;;;;;9.98;4.97;;;17.00;99.90;;;;;;6219535;23;20059;-80
2023/07/29 04:32:48;;;;;;;10.52;4.18;;;17.10;99.90;;;;;;6246548;23;20020;-79
2023/07/29 04:35:14;;;;;;;10.57;4.88;;;17.10;99.90;;;;;;6219721;23;20035;-79
2023/07/29 04:37:40;;;;;;;11.38;4.28;;;17.10;99.90;;;;;;6219478;23;20020;-79
2023/07/29 04:40:06;;;;;;;12.82;4.18;;;17.10;99.90;;;;;;6219150;23;20016;-79
2023/07/29 04:42:36;;;;;;;10.55;4.03;;;17.10;99.90;;;;;;6246439;23;20042;-79
2023/07/29 04:45:02;;;;;;;9.82;4.18;;;17.10;99.90;;;;;;6246570;23;20019;-79
2023/07/29 04:47:28;;;;;;;8.15;4.22;;;17.20;99.90;;;;;;6246232;23;20056;-79
2023/07/29 04:49:54;;;;;;;8.02;3.88;;;17.20;99.90;;;;;;6219342;23;20090;-79
2023/07/29 04:52:22;;;;;;;8.77;3.90;;;17.30;99.90;;;;;;6219309;23;20055;-79
2023/07/29 04:54:48;;;;;;;8.38;4.00;;;17.30;99.90;;;;;;6219357;23;20023;-79
2023/07/29 04:57:13;;;;;;;7.72;3.65;;;17.30;99.90;;;;;;6219277;23;20020;-79
2023/07/29 04:59:40;;;;;;;9.45;3.42;;;17.30;99.90;;;;;;6218995;23;20050;-79
2023/07/29 05:02:05;;;;;;;9.13;3.60;;;17.30;99.90;;;;;;6246135;23;20432;-79
2023/07/29 05:04:31;;;;;;;6.78;3.38;;;17.30;99.90;;;;;;6219343;23;20096;-79
2023/07/29 05:06:57;;;;;;;8.27;3.85;;;17.30;99.90;;;;;;6219318;23;20032;-79
2023/07/29 05:09:23;;;;;;;10.85;3.95;;;17.20;99.90;;;;;;6219437;23;20024;-79
2023/07/29 05:11:49;;;;;;;9.05;4.28;;;17.20;99.90;;;;;;6219271;23;20017;-79
2023/07/29 05:14:16;;;;;;;8.93;3.88;;;17.20;99.90;;;;;;6219272;23;20023;-79
2023/07/29 05:16:42;;;;;;;11.05;3.55;;;17.20;99.90;;;;;;6246412;23;20023;-79
2023/07/29 05:19:08;;;;;;;11.07;3.90;;;17.20;99.90;;;;;;6218879;23;20024;-79
2023/07/29 05:21:33;;;;;;;10.20;4.50;;;17.20;99.90;;;;;;6219237;23;20070;-79
2023/07/29 05:23:59;;;;;;;6.93;3.70;;;17.20;99.90;;;;;;6220673;23;20016;-79
2023/07/29 05:26:25;;;;;;;11.90;4.43;;;17.20;99.90;;;;;;6221228;23;20031;-79
2023/07/29 05:28:51;;;;;;;9.75;3.63;;;17.20;99.90;;;;;;6221132;23;20016;-79
2023/07/29 05:31:17;;;;;;;8.75;3.50;;;17.20;99.90;;;;;;6220991;23;20026;-79
2023/07/29 05:33:43;;;;;;;7.10;3.00;;;17.20;99.90;;;;;;6220949;23;20098;-79
2023/07/29 05:36:09;;;;;;;6.43;3.15;;;17.20;99.90;;;;;;6221132;23;20446;-79
2023/07/29 05:38:42;;;;;;;10.20;3.08;;;17.20;99.90;;;;;;6221027;23;20400;-79
2023/07/29 05:41:07;;;;;;;;;;;17.30;99.90;;;;;;6221320;23;20407;-78
2023/07/29 05:43:33;;;;;;;9.70;2.72;;;17.30;99.90;;;;;;6246379;23;19919;-79
2023/07/29 05:45:58;;;;;;;6.28;2.47;;;17.30;99.90;;;;;;6220887;23;20348;-78
2023/07/29 05:48:24;;;;;;;11.48;3.00;;;17.20;99.90;;;;;;6247983;23;20020;-78
2023/07/29 05:50:50;;;;;;;11.07;3.05;;;17.30;99.90;;;;;;6220991;23;20020;-78
2023/07/29 05:53:15;;;;;;;7.10;2.60;;;17.30;99.90;;;;;;6220888;23;20027;-78
2023/07/29 05:55:41;;;;;;;7.05;2.60;;;17.30;99.90;;;;;;6220875;23;20024;-78
2023/07/29 05:58:07;;;;;;;9.20;3.13;;;17.30;99.90;;;;;;6220894;23;20048;-79
2023/07/29 06:00:34;;;;;;;8.45;2.67;;;17.30;99.90;;;;;;6220456;23;20030;-78
2023/07/29 06:03:00;;;;;;;6.47;3.08;;;17.30;99.90;;;;;;6247813;23;20333;-78
2023/07/29 06:05:26;;;;;;;7.65;2.92;;;17.30;99.90;;;;;;6220751;23;20459;-78
2023/07/29 06:07:51;;;;;;;8.57;3.00;;;17.40;99.90;;;;;;6220896;23;20016;-78
2023/07/29 06:10:19;;;;;;;7.10;2.72;;;17.40;99.90;;;;;;6247974;23;20016;-78
2023/07/29 06:12:46;;;;;;;7.07;2.67;;;17.40;99.90;;;;;;6220749;23;20020;-79
2023/07/29 06:15:14;;;;;;;9.95;2.92;;;17.40;99.90;;;;;;6247478;23;20064;-78
2023/07/29 06:17:40;;;;;;;7.82;2.72;;;17.50;99.90;;;;;;6220761;23;20067;-78
2023/07/29 06:20:09;;;;;;;7.75;2.65;;;17.50;99.90;;;;;;6220599;23;20467;-80
2023/07/29 06:22:38;;;;;;;7.82;3.20;;;17.50;99.90;;;;;;6247786;23;20063;-79
2023/07/29 06:25:04;;;;;;;9.50;3.20;;;17.50;99.90;;;;;;6219271;23;20336;-78
2023/07/29 06:27:29;;;;;;;8.32;2.78;;;17.50;99.90;;;;;;6220145;23;20444;-77
2023/07/29 06:29:55;;;;;;;9.80;3.38;;;17.70;99.90;;;;;;6220284;23;20091;-78
2023/07/29 06:32:20;;;;;;;10.27;3.45;;;17.90;99.90;;;;;;6220277;23;20438;-79
2023/07/29 06:34:46;;;;;;;11.13;3.05;;;18.10;99.90;;;;;;6219723;23;20078;-79
2023/07/29 06:37:12;;;;;;;10.13;3.25;;;18.30;99.90;;;;;;6220304;23;20016;-78
2023/07/29 06:39:37;;;;;;;8.25;3.00;;;18.50;99.90;;;;;;6220059;23;20078;-79
2023/07/29 06:42:03;;;;;;;10.57;2.92;;;18.60;99.90;;;;;;6220348;23;20028;-77
2023/07/29 06:44:29;;;;;;;7.95;2.90;;;18.70;99.90;;;;;;6220032;23;20012;-77
2023/07/29 06:46:54;;;;;;;9.32;3.90;;;18.70;99.90;;;;;;6220115;23;20012;-77
2023/07/29 06:49:20;;;;;;;6.75;3.17;;;18.70;99.90;;;;;;6220234;23;20526;-77
2023/07/29 06:51:46;;;;;;;7.05;3.10;;;18.60;99.90;;;;;;6220170;23;20024;-78
2023/07/29 06:54:11;;;;;;;8.07;2.85;;;18.60;99.90;;;;;;6245830;23;20051;-81
2023/07/29 06:56:37;;;;;;;12.38;3.75;;;18.60;99.90;;;;;;6220035;23;20102;-80
2023/07/29 06:59:02;;;;;;;14.60;4.03;;;18.60;99.90;;;;;;6220000;23;20016;-78
2023/07/29 07:01:28;;;;;;;6.38;3.08;;;18.70;99.90;;;;;;6246591;23;20515;-79
2023/07/29 07:03:54;;;;;;;9.77;3.65;;;18.70;99.90;;;;;;6247234;23;20020;-80
2023/07/29 07:06:21;;;;;;;7.45;3.33;;;18.80;99.90;;;;;;6219965;23;20027;-78
2023/07/29 07:08:47;;;;;;;11.43;3.88;;;19.00;99.90;;;;;;6219733;23;20379;-78
2023/07/29 07:11:13;;;;;;;9.05;3.60;;;19.10;99.90;;;;;;6219700;23;20475;-78
2023/07/29 07:13:39;;;;;;;11.10;4.00;;;19.10;99.90;;;;;;6246985;23;20090;-78
2023/07/29 07:16:04;;;;;;;10.40;4.47;;;19.20;99.90;;;;;;6219559;23;20356;-77
2023/07/29 07:18:30;;;;;;;9.43;3.92;;;19.20;99.90;;;;;;6219722;23;20028;-79
2023/07/29 07:20:55;;;;;;;10.63;3.88;;;19.20;99.90;;;;;;6218534;23;20051;-78
2023/07/29 07:23:21;;;;;;;9.93;3.95;;;19.20;99.90;;;;;;6219439;23;20023;-77
2023/07/29 07:25:47;;;;;;;7.95;3.70;;;19.20;99.90;;;;;;6219277;23;20016;-78
2023/07/29 07:28:12;;;;;;;7.72;3.40;;;19.10;99.90;;;;;;6219619;23;20012;-78
2023/07/29 07:30:41;;;;;;;10.93;3.88;;;19.10;99.90;;;;;;6218986;23;20027;-78
2023/07/29 07:33:07;;;;;;;11.32;4.43;;;19.10;99.90;;;;;;6219118;23;20047;-78
2023/07/29 07:35:33;;;;;;;10.07;3.88;;;19.10;99.90;;;;;;6246151;23;20016;-78
2023/07/29 07:38:01;;;;;;;7.50;3.47;;;19.10;99.90;;;;;;6219288;23;20012;-78
2023/07/29 07:40:27;;;;;;;8.02;3.92;;;19.10;99.90;;;;;;6219309;23;20027;-77
2023/07/29 07:42:52;;;;;;;9.13;4.18;;;19.20;99.90;;;;;;6218660;23;20046;-78
2023/07/29 07:45:18;;;;;;;5.95;3.80;;;19.20;99.90;;;;;;6246247;23;20027;-78
2023/07/29 07:47:44;;;;;;;8.40;3.83;;;19.40;99.90;;;;;;6219144;23;20099;-78
2023/07/29 07:50:10;;;;;;;7.55;3.80;;;19.40;99.90;;;;;;6219190;23;20028;-78
2023/07/29 07:52:35;;;;;;;7.70;3.60;;;19.40;99.90;;;;;;6218864;23;20766;-78
2023/07/29 07:55:01;;;;;;;8.95;3.55;;;19.50;99.90;;;;;;6219109;23;20352;-78
2023/07/29 07:57:27;;;;;;;9.88;3.72;;;19.50;99.90;;;;;;6246330;23;20016;-78
2023/07/29 07:59:53;;;;;;;7.05;3.85;;;19.70;99.90;;;;;;6218694;23;20016;-77
2023/07/29 08:02:20;;;;;;;6.13;2.83;;;19.60;99.90;;;;;;6219330;23;20025;-79
2023/07/29 08:04:46;;;;;;;9.18;3.60;;;19.70;99.90;;;;;;6246359;23;20039;-78
2023/07/29 08:07:11;;;;;;;8.00;3.60;;;19.80;99.90;;;;;;6219087;23;20504;-78
2023/07/29 08:09:37;;;;;;;7.68;3.40;;;19.70;99.90;;;;;;6219339;23;20012;-78
2023/07/29 08:12:03;;;;;;;8.85;3.80;;;19.60;99.90;;;;;;6218933;23;20055;-78
2023/07/29 08:14:28;;;;;;;10.30;3.60;;;19.60;99.90;;;;;;6218424;23;20087;-78
2023/07/29 08:16:57;;;;;;;6.55;3.38;;;19.70;99.90;;;;;;6218785;23;20505;-78
2023/07/29 08:19:26;;;;;;;7.13;3.05;;;19.80;99.90;;;;;;6219296;23;20016;-78
2023/07/29 08:21:54;;;;;;;8.90;3.20;;;19.80;99.90;;;;;;6246003;23;20463;-78
2023/07/29 08:24:23;;;;;;;8.13;3.08;;;19.80;99.90;;;;;;6218685;23;20022;-78
2023/07/29 08:26:48;;;;;;;8.23;3.08;;;19.80;99.90;;;;;;6219019;23;20022;-78
2023/07/29 08:29:14;;;;;;;7.13;2.92;;;19.80;99.90;;;;;;6218860;23;20095;-78
2023/07/29 08:31:40;;;;;;;9.07;3.05;;;19.80;99.90;;;;;;6218791;23;20027;-78
2023/07/29 08:34:05;;;;;;;8.98;3.03;;;19.80;99.90;;;;;;6219184;23;20020;-76
2023/07/29 08:36:31;;;;;;;7.38;2.60;;;20.00;99.90;;;;;;6218833;23;20024;-79
2023/07/29 08:38:56;;;;;;;7.95;3.05;;;20.10;99.90;;;;;;6218904;23;20020;-77
2023/07/29 08:41:32;;;;;;;8.70;2.90;;;20.20;99.90;;;;;;6245857;23;20436;-77
2023/07/29 08:44:09;;;;;;;5.43;2.30;;;20.30;99.90;;;;;;6219354;23;20032;-77
2023/07/29 08:46:35;;;;;;;6.15;2.53;;;20.60;99.90;;;;;;6218620;23;20020;-78
2023/07/29 08:49:07;;;;;;;6.53;2.63;;;20.70;99.90;;;;;;6207147;23;20071;-82
2023/07/29 08:51:49;;;;;;;5.88;2.30;;;20.70;99.90;;;;;;6158796;23;20507;-83
2023/07/29 08:54:18;;;;;;;8.63;2.45;;;20.80;99.90;;;;;;6159062;23;20043;-84
2023/07/29 08:56:50;;;;;;;6.90;2.53;;;20.70;99.90;;;;;;6159201;23;20101;-89
2023/07/29 08:59:27;;;;;;;5.53;2.08;;;20.70;99.90;;;;;;6161019;23;20017;-88
2023/07/29 09:02:12;;;;;;;6.38;3.03;;;20.60;99.90;;;;;;6161004;23;20021;-86
2023/07/29 09:04:39;;;;;;;5.53;2.10;;;20.50;99.90;;;;;;6160910;23;20013;-86
2023/07/29 09:07:06;;;;;;;7.47;2.45;;;20.50;99.90;;;;;;6161020;23;20024;-85
2023/07/29 09:09:34;;;;;;;7.45;2.40;;;20.60;99.90;;;;;;6160938;23;20025;-84
2023/07/29 09:12:11;;;;;;;5.50;2.17;;;20.90;99.90;;;;;;6159993;23;20027;-86
2023/07/29 09:14:36;;;;;;;7.32;2.20;;;21.00;99.90;;;;;;6160939;23;20017;-84
2023/07/29 09:17:10;;;;;;;8.35;2.50;;;21.10;99.90;;;;;;6187174;23;20021;-90
2023/07/29 09:19:36;;;;;;;6.28;2.00;;;21.10;99.90;;;;;;6161025;23;20337;-87
2023/07/29 09:22:02;;;;;;;6.82;2.05;;;21.20;99.90;;;;;;6160934;23;20021;-85
2023/07/29 09:24:32;;;;;;;6.15;2.08;;;21.30;99.90;;;;;;6160997;23;20024;-84
2023/07/29 09:27:07;;;;;;;5.43;2.22;;;21.50;99.90;;;;;;6160809;23;20017;-82
2023/07/29 09:29:36;;;;;;;8.68;2.42;;;21.50;99.90;;;;;;6160650;23;20013;-87
2023/07/29 09:32:26;;;;;;;6.35;1.80;;;21.50;99.90;;;;;;6161027;23;20035;-82
2023/07/29 09:34:52;;;;;;;6.60;2.13;;;21.40;99.90;;;;;;6160956;23;20016;-84
2023/07/29 09:37:23;;;;;;;5.32;1.48;;;21.30;99.90;;;;;;6160706;23;20040;-84
2023/07/29 09:39:49;;;;;;;5.60;1.90;;;21.30;99.90;;;;;;6160442;23;20127;-82
2023/07/29 09:42:33;;;;;;;4.95;1.45;;;21.20;99.90;;;;;;6160426;23;20013;-85
2023/07/29 09:44:59;;;;;;;4.90;2.40;;;21.20;99.90;;;;;;6187604;23;20021;-78
2023/07/29 09:47:26;;;;;;;4.45;1.65;;;21.20;99.90;;;;;;6187142;23;20013;-78
2023/07/29 09:49:52;;;;;;;4.30;1.88;;;21.20;99.90;;;;;;6187139;23;20348;-79
2023/07/29 09:52:23;;;;;;;5.15;1.90;;;21.20;99.90;;;;;;6160496;23;20091;-79
2023/07/29 09:54:48;;;;;;;8.55;1.98;;;21.20;99.90;;;;;;6160752;23;20021;-79
2023/07/29 09:57:15;;;;;;;5.55;1.80;;;21.20;99.90;;;;;;6160620;23;20120;-80
2023/07/29 09:59:41;;;;;;;4.43;1.52;;;21.20;99.90;;;;;;6186772;23;20434;-78
2023/07/29 10:02:15;;;;;;;5.95;1.88;;;21.20;99.90;;;;;;6187190;23;20023;-79
2023/07/29 10:04:42;;;;;;;5.07;1.83;;;21.20;99.90;;;;;;6186831;23;20016;-79
2023/07/29 10:07:10;;;;;;;3.90;1.40;;;21.30;99.90;;;;;;6160669;23;20024;-79
2023/07/29 10:09:38;;;;;;;4.43;1.45;;;21.40;99.90;;;;;;6186549;23;20445;-79
2023/07/29 10:12:07;;;;;;;4.90;1.60;;;21.40;99.90;;;;;;6160479;23;20361;-80
2023/07/29 10:14:33;;;;;;;3.60;1.38;;;21.50;99.90;;;;;;6160855;23;20118;-80
2023/07/29 10:17:00;;;;;;;4.57;1.40;;;21.60;99.90;;;;;;6160726;23;20017;-79
2023/07/29 10:19:26;;;;;;;3.97;1.38;;;21.80;99.90;;;;;;6160590;23;20021;-79
2023/07/29 10:21:55;;;;;;;3.90;1.60;;;21.70;99.90;;;;;;6160727;23;20048;-79
2023/07/29 10:24:29;;;;;;;4.25;1.35;;;21.70;99.90;;;;;;6187293;23;20013;-80
2023/07/29 10:26:59;;;;;;;5.63;1.30;;;21.80;99.90;;;;;;6160639;23;20483;-80
2023/07/29 10:29:30;;;;;;;3.45;1.20;;;21.80;99.90;;;;;;6160432;23;20017;-79
2023/07/29 10:31:57;;;;;;;3.60;1.38;;;21.80;99.90;;;;;;6187212;23;20024;-79
2023/07/29 10:34:24;;;;;;;4.18;1.40;;;21.70;99.90;;;;;;6187295;23;20044;-80
2023/07/29 10:36:52;;;;;;;3.33;1.38;;;21.60;99.90;;;;;;6160497;23;20024;-80
2023/07/29 10:39:17;;;;;;;2.83;1.15;;;21.50;99.90;;;;;;6160488;23;20349;-80
2023/07/29 10:41:57;;;;;;;4.10;1.30;;;21.30;99.90;;;;;;6187175;23;20024;-79
2023/07/29 10:44:52;;;;;;;3.78;1.38;;;21.30;99.90;;;;;;6160385;23;20449;-79
2023/07/29 10:47:23;;;;;;;3.90;1.15;;;21.10;99.90;;;;;;6149743;23;20023;-80
2023/07/29 10:49:59;;;;;;;4.32;1.27;;;21.20;99.90;;;;;;6160449;23;20017;-79
2023/07/29 10:52:34;;;;;;;3.90;1.67;;;21.30;99.90;;;;;;6160337;23;20021;-78
2023/07/29 10:55:22;;;;;;;2.15;1.10;;;21.40;99.90;;;;;;6187016;23;20061;-76
2023/07/29 10:57:47;;;;;;;3.47;1.40;;;21.40;99.90;;;;;;6159770;23;20029;-77
2023/07/29 11:00:21;;;;;;;6.88;1.98;;;21.10;99.90;;;;;;6161522;23;20021;-83
2023/07/29 11:03:28;;;;;;;8.60;2.10;;;21.00;99.90;;;;;;6184121;23;20083;-83
2023/07/29 11:05:54;;;;;;;6.43;2.00;;;20.50;99.90;;;;;;6103928;23;20025;-85
2023/07/29 11:08:50;;;;;;;6.10;1.90;;;20.40;99.90;;;;;;6163048;23;20024;-85
2023/07/29 11:11:16;;;;;;;5.63;1.73;;;20.40;99.90;;;;;;6189623;23;20021;-84
2023/07/29 11:13:41;;;;;;;4.57;1.60;;;20.40;99.90;;;;;;6187686;23;20088;-83
2023/07/29 11:16:11;;;;;;;5.07;2.20;;;20.60;99.90;;;;;;6160316;23;20017;-81
2023/07/29 11:18:37;;;;;;;6.78;2.00;;;20.70;99.90;;;;;;6186804;23;20071;-81
2023/07/29 11:21:04;;;;;;;4.97;1.90;;;20.80;99.90;;;;;;6159816;23;20079;-82
2023/07/29 11:23:33;;;;;;;4.53;1.70;;;20.90;99.90;;;;;;6186700;23;20017;-81
2023/07/29 11:26:01;;;;;;;4.05;1.67;;;21.20;99.90;;;;;;6186429;23;20021;-81
2023/07/29 11:28:28;;;;;;;4.35;1.50;;;21.40;99.90;;;;;;6160143;23;20013;-81
2023/07/29 11:30:57;;;;;;;4.95;1.65;;;21.50;99.90;;;;;;6159979;23;20092;-82
2023/07/29 11:33:26;;;;;;;4.13;1.48;;;21.20;99.90;;;;;;6159931;23;20340;-81
2023/07/29 11:35:52;;;;;;;5.40;2.00;;;21.00;99.90;;;;;;6159994;23;20025;-79
2023/07/29 11:38:20;;;;;;;4.30;1.40;;;20.80;99.90;;;;;;6159851;23;20009;-83
2023/07/29 11:41:05;;;;;;;5.28;1.35;;;20.80;99.90;;;;;;6159780;23;20017;-84
2023/07/29 11:43:36;;;;;;;4.35;1.50;;;20.50;99.90;;;;;;6186602;23;20020;-79
2023/07/29 11:46:01;;;;;;;3.75;1.55;;;20.20;99.90;;;;;;6186208;23;20441;-79
2023/07/29 11:48:31;;;;;;;4.78;1.75;;;20.00;99.90;;;;;;6186176;23;20056;-78
2023/07/29 11:50:57;;;;;;;4.10;1.60;;;19.80;99.90;;;;;;6186527;23;20013;-79
2023/07/29 11:53:25;;;;;;;5.30;1.60;;;19.80;99.90;;;;;;6159762;23;20091;-79
2023/07/29 11:55:52;;;;;;;4.78;1.40;;;19.90;99.90;;;;;;6159797;23;20068;-79
2023/07/29 11:58:18;;;;;;;2.78;0.90;;;19.90;99.90;;;;;;6159541;23;20425;-79
2023/07/29 12:00:44;;;;;;;3.60;1.20;;;19.70;99.90;;;;;;6159589;23;20099;-79
2023/07/29 12:03:11;;;;;;;2.65;1.25;;;19.80;99.90;;;;;;6159806;23;20072;-78
2023/07/29 12:05:37;;;;;;;3.40;1.20;;;20.00;99.90;;;;;;6159846;23;20028;-79
2023/07/29 12:08:03;;;;;;;3.70;1.38;;;20.10;99.90;;;;;;6186388;23;20017;-78
2023/07/29 12:10:29;;;;;;;5.38;1.10;;;20.40;99.90;;;;;;6159505;23;20021;-78
2023/07/29 12:12:56;;;;;;;5.05;1.40;;;20.60;99.90;;;;;;6159861;23;20060;-79
2023/07/29 12:15:28;;;;;;;4.35;1.80;;;20.80;99.90;;;;;;6159172;23;20353;-79
2023/07/29 12:17:57;;;;;;;4.45;1.40;;;20.80;99.90;;;;;;6159556;23;20414;-81
2023/07/29 12:20:24;;;;;;;5.93;1.77;;;21.00;99.90;;;;;;6159514;23;20021;-78
2023/07/29 12:22:56;;;;;;;5.10;1.20;;;21.00;99.90;;;;;;6185927;23;20016;-79
2023/07/29 12:25:23;;;;;;;4.57;1.30;;;21.10;99.90;;;;;;6157814;23;20017;-78
2023/07/29 12:28:06;;;;;;;5.82;1.50;;;20.90;99.90;;;;;;6159618;23;20035;-79
2023/07/29 12:30:32;;;;;;;5.90;1.55;;;20.70;99.90;;;;;;6186088;23;20009;-79
2023/07/29 12:32:58;;;;;;;4.93;1.50;;;20.60;99.90;;;;;;6159156;23;20071;-79
2023/07/29 12:35:24;;;;;;;4.70;1.67;;;20.40;99.90;;;;;;6159216;23;20013;-79
2023/07/29 12:37:59;;;;;;;5.75;1.80;;;20.40;99.90;;;;;;6159538;23;20036;-78
2023/07/29 12:40:26;;;;;;;7.75;1.55;;;20.30;99.90;;;;;;6159537;23;20013;-78
2023/07/29 12:42:52;;;;;;;6.35;1.67;;;20.20;99.90;;;;;;6159433;23;20024;-78
2023/07/29 12:45:18;;;;;;;7.70;1.63;;;20.30;99.90;;;;;;6186072;23;20071;-79
2023/07/29 12:47:44;;;;;;;2.70;1.30;;;20.30;99.90;;;;;;6186111;23;20084;-79